Wrightstown, Wisconsin
Current Conditions -  °F | °C
As of 10:53 AM on Friday 21 Nov 2014 (Local Time) from KGRB Reporting Station
Clear Clear  
Wind Chill:   Ceiling: Unl
Heat Index: 21°   Visibility: 10mi
Dew Point:   Wind: 15mph
Humidity: 53%   Direction: 200°SSW
Pressure: 30.35"   Gusts: NA
Location:  44.33°N, 88.16°W
Report Text: KGRB 211653Z 20013KT 10SM CLR M06/M14 A3035 RMK AO2 SLP291 T10611144
Loading
Personal Weather Stations






























Interactive Weather Map New forecast layout! Learn more

10-Day Weather Forecast

Advertisements
Track Severe Weather on mobile